Oswego, NY

3:20 PM EST on December 17, 2014 (GMT -0500)
East side Of Oswego | Change Station
CLOSE
Current Station
Personal Weather Station
Location: Oswego, NY
Elevation: 338 ft
Nearby Weather Stations

Elev 338 ft 43.45 °N, 76.50 °W | Updated 2 seconds ago

Overcast
Overcast
36.0 °F
Feels Like 27 °F
N
13.0
Wind Variable Wind from SW
Gusts 14.0 mph

Today
High -- | Low -- °F
--% Chance of Precip.
Yesterday
High -- | Low -- °F
Precip. -- in
7:33 AM 4:31 PM
Waning Crescent, 20% visible
Pressure 29.85 in
Visibility 7.0 miles
Clouds Mostly Cloudy 800 ft
Mostly Cloudy 1400 ft
Overcast 2600 ft
Windchill 27 °F
Dew Point 35 °F
Humidity 94%
Rainfall 0.20 in
Snow Depth Not available.
UV 0 out of 12
Pollen .10 out of 12
Air Quality Not available.
Flu Activity Not available.
SPECI KFZY 172005Z AUTO 26009KT 7SM -RA BKN008 BKN014 OVC026 02/00 A2985 RMK AO2 P0001 T00220000

More Conditions Fewer Conditions

Pressure 29.85 in
Visibility 7.0 miles
Clouds Mostly Cloudy 800 ft
Mostly Cloudy 1400 ft
Overcast 2600 ft
Windchill 27 °F
Dew Point 35 °F
Humidity 94%
Rainfall 0.20 in
Snow Depth Not available.
UV 0 out of 12
Pollen .10 out of 12
Air Quality Not available.
Flu Activity Not available.
SPECI KFZY 172005Z AUTO 26009KT 7SM -RA BKN008 BKN014 OVC026 02/00 A2985 RMK AO2 P0001 T00220000

More Conditions Fewer Conditions

10-Day Weather Forecast

Almanac

Astronomy

Dec. 17, 2014 Rise Set
Actual Time
Civil Twilight
Nautical Twilight
Astronomical Twilight
Moon
Length of Visible Light
Length of Day
Tomorrow will be .
, % of the Moon is Illuminated

Today's Extremes

State Highs State Lows

Community

WunderPhotos

Upload Photos

1,778,802 photos uploaded!

WunderBlogs® & News

Nearby

Air Quality

  Air Quality AQ Index Pollutant
Not available.

Snow Depth

Station Depth Elevation

Earthquake Activity

City Distance Mag. Time & Date
Minimum magnitude displayed is 2.5.

Coastal Water Temperatures

Place Temperature

Nearby Weather Stations